Time;durP1;ratioP1;P1;durP2;ratioP2;P2;SDS_P1;SDS_P2;PMS_P1;PMS_P2;Temp;Humidity;BMP_temperature;BMP_pressure;BME280_temperature;BME280_humidity;BME280_pressure;Samples;Min_cycle;Max_cycle;Signal;HPM_P1;HPM_P2
2024/01/20 00:00:48;;;;;;;12.90;5.75;;;7.00;99.40;;;;;;5053253;28;20044;-75
2024/01/20 00:03:13;;;;;;;12.65;5.43;;;6.80;99.90;;;;;;5052128;28;20067;-78
2024/01/20 00:05:39;;;;;;;10.68;5.28;;;7.10;96.60;;;;;;5070213;28;20036;-72
2024/01/20 00:08:05;;;;;;;12.88;5.65;;;7.10;99.40;;;;;;5053271;28;20032;-76
2024/01/20 00:10:30;;;;;;;8.07;5.13;;;6.70;98.40;;;;;;5054122;28;20138;-76
2024/01/20 00:12:56;;;;;;;9.88;5.75;;;6.90;99.90;;;;;;5070488;28;20040;-74
2024/01/20 00:15:22;;;;;;;11.88;6.30;;;6.90;99.90;;;;;;5045734;28;20041;-76
2024/01/20 00:17:48;;;;;;;11.10;6.30;;;6.80;99.90;;;;;;5053785;28;20213;-75
2024/01/20 00:20:13;;;;;;;11.25;6.40;;;7.10;99.90;;;;;;5070420;28;20052;-74
2024/01/20 00:22:39;;;;;;;12.35;6.28;;;6.50;99.90;;;;;;5064696;28;20039;-75
2024/01/20 00:25:05;;;;;;;13.52;6.85;;;6.60;99.90;;;;;;5053386;28;20045;-74
2024/01/20 00:27:31;;;;;;;11.13;7.65;;;6.50;99.90;;;;;;5052325;28;20041;-75
2024/01/20 00:29:57;;;;;;;17.63;8.05;;;6.80;99.90;;;;;;5054789;28;20095;-74
2024/01/20 00:32:22;;;;;;;11.70;7.88;;;6.90;99.90;;;;;;5066940;28;20089;-74
2024/01/20 00:34:48;;;;;;;12.35;7.93;;;6.80;99.90;;;;;;5067572;28;20346;-75
2024/01/20 00:37:14;;;;;;;12.57;9.13;;;6.50;99.90;;;;;;5052041;28;20041;-77
2024/01/20 00:39:39;;;;;;;14.50;8.73;;;6.60;99.90;;;;;;5054030;28;20040;-75
2024/01/20 00:42:05;;;;;;;15.00;8.45;;;6.80;99.90;;;;;;5051839;28;20055;-75
2024/01/20 00:44:31;;;;;;;13.90;8.93;;;6.50;99.90;;;;;;5082490;28;20398;-76
2024/01/20 00:46:57;;;;;;;16.65;9.82;;;6.50;99.90;;;;;;5045149;28;20665;-72
2024/01/20 00:49:22;;;;;;;14.90;9.70;;;6.90;99.90;;;;;;5052450;28;20436;-73
2024/01/20 00:51:48;;;;;;;16.58;9.60;;;6.80;99.90;;;;;;5054059;28;20038;-77
2024/01/20 00:54:14;;;;;;;15.82;9.43;;;6.80;99.90;;;;;;5069311;28;20123;-77
2024/01/20 00:56:39;;;;;;;18.00;10.88;;;6.60;99.90;;;;;;5064689;28;20052;-76
2024/01/20 00:59:05;;;;;;;12.65;10.23;;;7.00;99.90;;;;;;5052928;28;20040;-76
2024/01/20 01:01:31;;;;;;;17.95;9.88;;;6.30;99.90;;;;;;5052950;28;20040;-73
2024/01/20 01:03:56;;;;;;;16.75;9.75;;;6.50;99.90;;;;;;5066803;28;20048;-76
2024/01/20 01:06:22;;;;;;;10.80;9.20;;;6.40;99.90;;;;;;5068945;28;20159;-74
2024/01/20 01:08:47;;;;;;;13.50;10.13;;;6.80;99.90;;;;;;5052613;28;20037;-75
2024/01/20 01:11:13;;;;;;;16.48;10.68;;;6.70;99.90;;;;;;5069823;28;20036;-74
2024/01/20 01:13:39;;;;;;;17.95;11.13;;;6.80;99.90;;;;;;5068282;28;20044;-76
2024/01/20 01:16:05;;;;;;;17.65;11.15;;;6.90;99.90;;;;;;5085891;28;20083;-73
2024/01/20 01:18:31;;;;;;;15.18;10.60;;;6.40;1.00;;;;;;5077300;28;20079;-75
2024/01/20 01:20:57;;;;;;;19.55;11.13;;;6.80;99.90;;;;;;5066331;28;20049;-74
2024/01/20 01:23:23;;;;;;;14.20;10.73;;;6.70;99.90;;;;;;5069420;28;20042;-73
2024/01/20 01:25:49;;;;;;;16.90;10.68;;;6.50;1.00;;;;;;5053465;28;20051;-74
2024/01/20 01:28:15;;;;;;;16.88;11.10;;;6.70;99.90;;;;;;5069789;28;20059;-77
2024/01/20 01:30:40;;;;;;;15.63;10.85;;;6.70;1.00;;;;;;5068741;28;20032;-77
2024/01/20 01:33:06;;;;;;;15.52;10.55;;;6.70;1.00;;;;;;5068360;28;20254;-72
2024/01/20 01:35:32;;;;;;;15.68;9.95;;;6.80;1.00;;;;;;5052036;28;20072;-77
2024/01/20 01:37:58;;;;;;;14.82;11.20;;;7.00;1.00;;;;;;5052346;28;20507;-75
2024/01/20 01:40:25;;;;;;;18.60;11.18;;;6.30;1.00;;;;;;5067888;28;20096;-75
2024/01/20 01:42:56;;;;;;;19.13;11.50;;;6.50;1.00;;;;;;5025102;28;20139;-74
2024/01/20 01:45:23;;;;;;;17.77;12.07;;;6.50;1.00;;;;;;5094268;28;20036;-73
2024/01/20 01:47:50;;;;;;;18.55;12.05;;;6.60;1.00;;;;;;5052402;28;20032;-76
2024/01/20 01:50:16;;;;;;;17.60;12.45;;;6.80;1.00;;;;;;5066405;28;20037;-73
2024/01/20 01:52:42;;;;;;;16.63;12.07;;;7.10;1.00;;;;;;5029776;28;20037;-75
2024/01/20 01:55:08;;;;;;;19.88;11.95;;;6.60;1.00;;;;;;5050868;28;20076;-75
2024/01/20 01:57:35;;;;;;;17.75;12.40;;;6.90;1.00;;;;;;5068570;28;20464;-72
2024/01/20 02:00:02;;;;;;;17.75;13.43;;;6.80;1.00;;;;;;5051351;28;20452;-74
2024/01/20 02:02:28;;;;;;;19.13;13.07;;;6.90;99.90;;;;;;5066414;28;20076;-75
2024/01/20 02:04:54;;;;;;;22.13;13.40;;;7.10;99.90;;;;;;5067201;28;20075;-75
2024/01/20 02:07:20;;;;;;;20.33;13.20;;;6.70;99.90;;;;;;5050932;28;20036;-76
2024/01/20 02:09:46;;;;;;;19.70;12.57;;;6.90;99.90;;;;;;5051747;28;20044;-75
2024/01/20 02:12:14;;;;;;;19.95;13.65;;;6.60;99.90;;;;;;5049595;28;20119;-75
2024/01/20 02:14:44;;;;;;;17.10;13.25;;;7.20;99.90;;;;;;5051797;28;20389;-74
2024/01/20 02:17:09;;;;;;;17.85;13.98;;;6.80;99.90;;;;;;5067563;28;20126;-73
2024/01/20 02:19:40;;;;;;;17.10;13.05;;;7.00;1.00;;;;;;5068971;28;20415;-74
2024/01/20 02:22:12;;;;;;;19.70;13.82;;;7.00;99.90;;;;;;5050103;28;20044;-72
2024/01/20 02:24:38;;;;;;;17.42;13.50;;;6.60;99.90;;;;;;5044520;28;20083;-75
2024/01/20 02:27:04;;;;;;;16.70;12.77;;;6.70;1.00;;;;;;5050941;28;20044;-77
2024/01/20 02:29:30;;;;;;;25.05;13.27;;;7.00;99.90;;;;;;5051638;28;20040;-74
2024/01/20 02:31:56;;;;;;;23.58;13.95;;;7.00;1.00;;;;;;5049737;28;20128;-77
2024/01/20 02:34:22;;;;;;;19.17;14.75;;;6.50;1.00;;;;;;5040589;28;20045;-75
2024/01/20 02:36:47;;;;;;;17.95;14.90;;;6.70;1.00;;;;;;5025532;28;20165;-78
2024/01/20 02:39:13;;;;;;;20.20;15.40;;;6.70;1.00;;;;;;5067555;28;20094;-75
2024/01/20 02:41:39;;;;;;;17.10;14.90;;;6.70;1.00;;;;;;5011425;28;20090;-76
2024/01/20 02:44:08;;;;;;;25.02;15.90;;;7.00;1.00;;;;;;5074477;28;20036;-76
2024/01/20 02:46:34;;;;;;;18.40;14.55;;;6.60;99.90;;;;;;5051159;28;20136;-74
2024/01/20 02:49:00;;;;;;;21.30;14.85;;;6.60;99.90;;;;;;5066944;28;20139;-77
2024/01/20 02:51:25;;;;;;;20.58;14.55;;;6.60;99.90;;;;;;5032543;28;20056;-75
2024/01/20 02:53:51;;;;;;;22.27;15.82;;;6.60;99.90;;;;;;5066916;28;20040;-75
2024/01/20 02:56:17;;;;;;;22.08;15.48;;;6.90;99.90;;;;;;5067755;28;20050;-75
2024/01/20 02:58:42;;;;;;;21.08;15.68;;;6.50;1.00;;;;;;5050659;28;20121;-75
2024/01/20 03:01:08;;;;;;;22.45;15.93;;;7.00;1.00;;;;;;5045670;28;20033;-74
2024/01/20 03:03:34;;;;;;;22.20;16.25;;;6.70;1.00;;;;;;5049818;28;20055;-73
2024/01/20 03:05:59;;;;;;;21.47;16.30;;;6.70;1.00;;;;;;5067754;28;20484;-75
2024/01/20 03:08:25;;;;;;;20.15;16.08;;;6.70;1.00;;;;;;5067542;28;20028;-75
2024/01/20 03:10:50;;;;;;;22.50;17.33;;;6.50;1.00;;;;;;5064182;28;20068;-76
2024/01/20 03:13:16;;;;;;;21.85;18.30;;;6.30;1.00;;;;;;5045421;28;20067;-75
2024/01/20 03:15:42;;;;;;;23.65;19.45;;;6.80;1.00;;;;;;5047633;28;20484;-75
2024/01/20 03:18:07;;;;;;;22.20;17.73;;;6.70;1.00;;;;;;5034100;28;20048;-77
2024/01/20 03:20:33;;;;;;;23.85;20.20;;;6.60;1.00;;;;;;5034826;28;20040;-77
2024/01/20 03:23:00;;;;;;;23.50;20.98;;;6.40;1.00;;;;;;5030108;28;20119;-78
2024/01/20 03:25:26;;;;;;;22.15;19.75;;;6.60;1.00;;;;;;5048810;28;20048;-78
2024/01/20 03:27:53;;;;;;;30.00;22.30;;;6.20;1.00;;;;;;5049153;28;20039;-74
2024/01/20 03:30:20;;;;;;;27.73;22.48;;;6.60;19.00;;;;;;5066781;28;20423;-73
2024/01/20 03:32:46;;;;;;;30.85;23.83;;;6.20;35.60;;;;;;5062546;28;20397;-75
2024/01/20 03:35:12;;;;;;;26.42;22.48;;;6.60;65.20;;;;;;5067948;28;20032;-75
2024/01/20 03:37:38;;;;;;;27.25;24.05;;;6.40;31.80;;;;;;5064690;28;20115;-75
2024/01/20 03:40:04;;;;;;;29.48;24.92;;;6.20;53.90;;;;;;5050578;28;20045;-78
2024/01/20 03:42:29;;;;;;;33.83;24.67;;;6.30;88.50;;;;;;5041359;28;20106;-76
2024/01/20 03:44:55;;;;;;;28.38;23.50;;;6.50;50.50;;;;;;5074581;28;20465;-77
2024/01/20 03:47:21;;;;;;;30.45;25.50;;;6.40;49.40;;;;;;5048856;28;20036;-74
2024/01/20 03:49:47;;;;;;;30.98;25.55;;;6.30;90.70;;;;;;5050332;28;20048;-74
2024/01/20 03:52:12;;;;;;;30.50;25.20;;;6.40;74.90;;;;;;5048852;28;20665;-75
2024/01/20 03:54:39;;;;;;;34.00;26.27;;;6.80;18.50;;;;;;5048068;28;20043;-72
2024/01/20 03:57:05;;;;;;;33.10;25.60;;;6.80;5.50;;;;;;5031680;28;20041;-75
2024/01/20 03:59:30;;;;;;;32.30;26.50;;;6.20;14.50;;;;;;5066647;28;20544;-74
2024/01/20 04:01:56;;;;;;;32.08;24.92;;;6.70;20.70;;;;;;5047256;28;20500;-74
2024/01/20 04:04:22;;;;;;;29.20;24.63;;;6.30;1.00;;;;;;5067167;28;20070;-75
2024/01/20 04:06:47;;;;;;;33.60;25.27;;;6.30;1.00;;;;;;5049409;28;20048;-75
2024/01/20 04:09:13;;;;;;;28.42;24.83;;;6.50;1.00;;;;;;5073859;28;20074;-74
2024/01/20 04:11:39;;;;;;;29.73;24.10;;;6.20;1.00;;;;;;5074678;28;20083;-72
2024/01/20 04:14:04;;;;;;;31.02;25.88;;;6.30;1.00;;;;;;5066800;28;20036;-75
2024/01/20 04:16:30;;;;;;;35.65;25.95;;;6.30;1.00;;;;;;5034157;28;20052;-74
2024/01/20 04:18:56;;;;;;;32.78;26.52;;;6.30;1.00;;;;;;5064792;28;20048;-73
2024/01/20 04:21:22;;;;;;;33.85;26.85;;;7.00;1.00;;;;;;5029803;28;20087;-73
2024/01/20 04:23:49;;;;;;;29.50;24.63;;;7.00;1.00;;;;;;5084655;28;20036;-77
2024/01/20 04:26:15;;;;;;;31.50;24.55;;;6.40;99.90;;;;;;5092002;28;20041;-76
2024/01/20 04:28:41;;;;;;;28.38;24.50;;;6.80;99.90;;;;;;5068895;28;20032;-75
2024/01/20 04:31:06;;;;;;;30.85;24.05;;;7.00;99.90;;;;;;5067231;28;20036;-76
2024/01/20 04:33:34;;;;;;;29.58;24.02;;;7.00;99.90;;;;;;5037029;28;20055;-77
2024/01/20 04:36:01;;;;;;;34.92;26.25;;;7.00;99.90;;;;;;5053335;28;20105;-75
2024/01/20 04:38:27;;;;;;;34.97;25.73;;;6.40;99.90;;;;;;5053378;28;20047;-76
2024/01/20 04:40:53;;;;;;;30.45;26.00;;;6.70;99.90;;;;;;5066761;28;20408;-76
2024/01/20 04:43:19;;;;;;;30.48;25.58;;;6.90;99.90;;;;;;5033809;28;20037;-74
2024/01/20 04:45:45;;;;;;;31.23;24.30;;;6.50;99.90;;;;;;5069600;28;20047;-74
2024/01/20 04:48:10;;;;;;;33.20;26.02;;;6.60;99.90;;;;;;5054115;28;20074;-74
2024/01/20 04:50:36;;;;;;;34.78;25.98;;;6.40;99.90;;;;;;5056707;28;20041;-74
2024/01/20 04:53:02;;;;;;;34.88;26.77;;;6.90;99.90;;;;;;5033979;28;20524;-73
2024/01/20 04:55:27;;;;;;;35.05;26.98;;;6.40;99.90;;;;;;5063430;28;20063;-75
2024/01/20 04:57:53;;;;;;;36.30;27.42;;;6.40;99.90;;;;;;5053053;28;20465;-74
2024/01/20 05:00:19;;;;;;;35.42;25.60;;;6.70;99.90;;;;;;5052914;28;20051;-74
2024/01/20 05:02:45;;;;;;;34.40;26.73;;;6.30;99.90;;;;;;5032168;28;20700;-74
2024/01/20 05:05:10;;;;;;;30.02;25.63;;;6.30;99.90;;;;;;5054121;28;20102;-75
2024/01/20 05:07:36;;;;;;;33.90;26.48;;;6.30;99.90;;;;;;5068483;28;20045;-75
2024/01/20 05:10:02;;;;;;;37.40;27.70;;;6.50;99.90;;;;;;5070363;28;20504;-74
2024/01/20 05:12:28;;;;;;;28.17;25.10;;;6.70;99.90;;;;;;5048717;28;20046;-73
2024/01/20 05:14:55;;;;;;;35.05;27.10;;;6.60;99.90;;;;;;5096985;28;20071;-73
2024/01/20 05:17:20;;;;;;;34.42;26.90;;;6.40;1.00;;;;;;5051657;28;20405;-72
2024/01/20 05:19:46;;;;;;;33.03;27.05;;;6.70;1.00;;;;;;5053158;28;20056;-74
2024/01/20 05:22:12;;;;;;;31.85;25.75;;;6.00;1.00;;;;;;5067615;28;20477;-75
2024/01/20 05:24:37;;;;;;;35.78;28.25;;;6.20;1.00;;;;;;5052859;28;20040;-75
2024/01/20 05:27:03;;;;;;;36.53;28.00;;;6.20;1.00;;;;;;5042546;28;20076;-74
2024/01/20 05:29:29;;;;;;;38.45;29.00;;;6.60;1.00;;;;;;5069069;28;20087;-75
2024/01/20 05:31:55;;;;;;;36.75;27.98;;;6.70;1.00;;;;;;5035372;28;20072;-74
2024/01/20 05:34:20;;;;;;;40.40;28.90;;;6.00;1.00;;;;;;5067765;28;20032;-73
2024/01/20 05:36:47;;;;;;;35.35;28.80;;;6.60;1.00;;;;;;5068198;28;20098;-75
2024/01/20 05:39:13;;;;;;;36.92;27.85;;;6.00;1.00;;;;;;5034341;28;20047;-74
2024/01/20 05:41:39;;;;;;;37.28;29.13;;;6.60;1.00;;;;;;5067256;28;20450;-73
2024/01/20 05:44:05;;;;;;;37.85;30.25;;;5.80;1.00;;;;;;5029824;28;20049;-74
2024/01/20 05:46:31;;;;;;;42.88;29.17;;;6.20;1.00;;;;;;5048205;28;20039;-74
2024/01/20 05:48:56;;;;;;;39.63;29.75;;;6.30;1.00;;;;;;5051632;28;20697;-73
2024/01/20 05:51:22;;;;;;;41.72;31.73;;;6.20;1.00;;;;;;5068056;28;20396;-73
2024/01/20 05:53:48;;;;;;;40.50;30.48;;;6.40;1.00;;;;;;5051655;28;20524;-75
2024/01/20 05:56:13;;;;;;;44.35;32.03;;;5.80;1.00;;;;;;5051997;28;20024;-74
2024/01/20 05:58:39;;;;;;;40.03;32.33;;;6.20;29.00;;;;;;5052293;28;20036;-73
2024/01/20 06:01:05;;;;;;;45.38;32.83;;;6.00;67.60;;;;;;5032016;28;20044;-75
2024/01/20 06:03:30;;;;;;;42.97;32.55;;;5.70;68.00;;;;;;5048833;28;20048;-74
2024/01/20 06:05:56;;;;;;;43.05;32.55;;;6.20;61.00;;;;;;5037109;28;20512;-74
2024/01/20 06:08:22;;;;;;;46.22;33.55;;;6.00;99.90;;;;;;5050453;28;20028;-76
2024/01/20 06:10:47;;;;;;;43.75;31.55;;;5.50;99.90;;;;;;5051691;28;20031;-74
2024/01/20 06:13:13;;;;;;;42.88;31.77;;;5.80;95.70;;;;;;5051095;28;20071;-74
2024/01/20 06:15:38;;;;;;;48.58;33.90;;;5.60;99.90;;;;;;5065439;28;20036;-74
2024/01/20 06:18:04;;;;;;;45.45;32.40;;;5.60;99.90;;;;;;5050712;28;20611;-74
2024/01/20 06:20:30;;;;;;;45.60;32.53;;;6.00;99.90;;;;;;5051831;28;20045;-74
2024/01/20 06:22:55;;;;;;;47.38;32.63;;;5.90;99.90;;;;;;5051232;28;20056;-74
2024/01/20 06:25:21;;;;;;;44.80;32.78;;;6.10;99.90;;;;;;5066055;28;20083;-74
2024/01/20 06:27:47;;;;;;;45.83;32.47;;;5.50;99.90;;;;;;5067500;28;20041;-76
2024/01/20 06:30:13;;;;;;;47.08;30.45;;;6.20;99.90;;;;;;5062478;28;20083;-75
2024/01/20 06:32:39;;;;;;;48.22;32.22;;;6.00;99.90;;;;;;5049120;28;20041;-75
2024/01/20 06:35:08;;;;;;;42.45;31.33;;;5.80;99.90;;;;;;5057260;28;20048;-73
2024/01/20 06:37:34;;;;;;;45.65;31.70;;;5.40;99.90;;;;;;5054535;28;20039;-74
2024/01/20 06:40:00;;;;;;;44.58;31.20;;;5.90;99.90;;;;;;5060358;28;20036;-75
2024/01/20 06:42:25;;;;;;;47.72;31.40;;;6.10;99.90;;;;;;5050485;28;20645;-76
2024/01/20 06:44:51;;;;;;;46.58;32.33;;;6.10;99.90;;;;;;5049842;28;20075;-76
2024/01/20 06:47:17;;;;;;;46.40;32.10;;;5.80;99.90;;;;;;5060410;28;20055;-76
2024/01/20 06:49:49;;;;;;;52.80;33.22;;;6.10;99.90;;;;;;5018079;28;20044;-74
2024/01/20 06:52:15;;;;;;;49.58;33.38;;;5.70;99.90;;;;;;5068793;28;20075;-73
2024/01/20 06:54:41;;;;;;;48.20;32.17;;;6.20;99.90;;;;;;5067227;28;20040;-75
2024/01/20 06:57:06;;;;;;;48.47;31.83;;;5.60;99.90;;;;;;5064662;28;20408;-76
2024/01/20 06:59:32;;;;;;;48.90;31.58;;;5.60;99.90;;;;;;5028437;28;20033;-76
2024/01/20 07:01:58;;;;;;;48.25;32.53;;;5.80;99.90;;;;;;5084185;28;20040;-74
2024/01/20 07:04:24;;;;;;;48.55;32.22;;;5.90;99.90;;;;;;5051130;28;20090;-73
2024/01/20 07:06:51;;;;;;;52.63;32.97;;;5.70;99.90;;;;;;5064193;28;20036;-74
2024/01/20 07:09:17;;;;;;;48.78;31.90;;;6.10;99.90;;;;;;5066840;28;20361;-74
2024/01/20 07:11:42;;;;;;;52.30;33.65;;;5.90;99.90;;;;;;5068068;28;20074;-74
2024/01/20 07:14:08;;;;;;;52.05;33.42;;;5.50;99.90;;;;;;5067256;28;20465;-73
2024/01/20 07:16:34;;;;;;;49.83;32.17;;;5.40;99.90;;;;;;5076017;28;20052;-72
2024/01/20 07:18:59;;;;;;;55.65;33.50;;;6.00;99.90;;;;;;5025101;28;20045;-76
2024/01/20 07:21:25;;;;;;;50.50;33.40;;;5.40;99.90;;;;;;5067313;28;20354;-74
2024/01/20 07:23:51;;;;;;;52.05;33.67;;;5.40;99.90;;;;;;5060533;28;20036;-73
2024/01/20 07:26:16;;;;;;;53.22;33.58;;;6.10;99.90;;;;;;5047628;28;20045;-73
2024/01/20 07:28:42;;;;;;;49.03;31.92;;;5.90;99.90;;;;;;5057435;28;20037;-73
2024/01/20 07:31:07;;;;;;;51.67;33.10;;;5.60;99.90;;;;;;5050545;28;20068;-75
2024/01/20 07:33:33;;;;;;;56.28;31.55;;;5.80;99.90;;;;;;5042710;28;20040;-73
2024/01/20 07:36:00;;;;;;;48.83;32.05;;;6.10;99.90;;;;;;5027309;28;20466;-74
2024/01/20 07:38:25;;;;;;;55.42;31.60;;;5.60;99.90;;;;;;5063618;28;20040;-75
2024/01/20 07:40:53;;;;;;;47.42;30.60;;;6.20;99.90;;;;;;5043378;28;20063;-74
2024/01/20 07:43:20;;;;;;;53.70;32.35;;;5.70;99.90;;;;;;5067017;28;20064;-73
2024/01/20 07:45:46;;;;;;;48.67;30.77;;;6.20;99.90;;;;;;5049949;28;20646;-73
2024/01/20 07:48:12;;;;;;;51.45;32.05;;;5.80;99.90;;;;;;5048579;28;20048;-74
2024/01/20 07:50:37;;;;;;;47.67;30.58;;;6.40;98.10;;;;;;5064586;28;20041;-75
2024/01/20 07:53:03;;;;;;;46.72;30.77;;;5.80;93.70;;;;;;5066887;28;20674;-74
2024/01/20 07:55:29;;;;;;;45.45;29.08;;;6.60;45.50;;;;;;5048416;28;20056;-75
2024/01/20 07:57:55;;;;;;;45.45;29.02;;;6.20;1.00;;;;;;5068859;28;20028;-74
2024/01/20 08:00:21;;;;;;;48.75;28.83;;;6.30;1.00;;;;;;5061272;28;20130;-73
2024/01/20 08:02:47;;;;;;;47.17;29.33;;;6.00;1.00;;;;;;5071125;28;20056;-72
2024/01/20 08:05:12;;;;;;;45.55;27.95;;;6.30;1.00;;;;;;5054048;28;20429;-74
2024/01/20 08:07:38;;;;;;;43.10;28.45;;;6.70;1.00;;;;;;5054618;28;20040;-76
2024/01/20 08:10:04;;;;;;;43.75;26.55;;;7.00;1.00;;;;;;5032788;28;20037;-71
2024/01/20 08:12:31;;;;;;;42.15;26.88;;;6.50;99.90;;;;;;5068591;28;20049;-75
2024/01/20 08:14:56;;;;;;;40.05;26.33;;;6.90;99.90;;;;;;5053387;28;20052;-74
2024/01/20 08:17:22;;;;;;;44.47;27.13;;;6.90;99.90;;;;;;5054392;28;20459;-73
2024/01/20 08:19:49;;;;;;;43.50;27.15;;;7.20;99.90;;;;;;5071094;28;20046;-75
2024/01/20 08:22:14;;;;;;;39.17;25.83;;;7.30;99.90;;;;;;5040983;28;20040;-74
2024/01/20 08:24:40;;;;;;;37.17;25.45;;;6.90;99.90;;;;;;5087569;28;20512;-76
2024/01/20 08:27:06;;;;;;;42.30;27.60;;;6.80;99.90;;;;;;5033830;28;20033;-74
2024/01/20 08:29:31;;;;;;;42.10;27.77;;;6.80;99.90;;;;;;5070745;28;20088;-76
2024/01/20 08:31:57;;;;;;;44.13;28.38;;;6.90;99.90;;;;;;5058292;28;20098;-75
2024/01/20 08:34:23;;;;;;;45.83;28.10;;;7.00;99.90;;;;;;5034498;28;20047;-74
2024/01/20 08:36:49;;;;;;;44.92;29.67;;;7.20;99.90;;;;;;5070547;28;20102;-75
2024/01/20 08:39:16;;;;;;;43.38;28.65;;;7.00;98.90;;;;;;5037321;28;20048;-76
2024/01/20 08:41:42;;;;;;;43.15;27.23;;;7.50;94.60;;;;;;5069339;28;20040;-75
2024/01/20 08:44:07;;;;;;;42.50;28.75;;;7.00;99.90;;;;;;5037236;28;20040;-75
2024/01/20 08:46:33;;;;;;;44.72;28.88;;;7.50;99.90;;;;;;5054184;28;20055;-75
2024/01/20 08:48:59;;;;;;;42.55;28.98;;;7.20;99.90;;;;;;5070160;28;20047;-73
2024/01/20 08:51:24;;;;;;;37.70;27.13;;;7.70;91.20;;;;;;5070199;28;20033;-72
2024/01/20 08:53:50;;;;;;;36.65;25.52;;;7.90;29.90;;;;;;5048028;28;20033;-75
2024/01/20 08:56:15;;;;;;;38.83;26.48;;;7.60;22.60;;;;;;5038187;28;20036;-73
2024/01/20 08:58:41;;;;;;;39.78;27.17;;;8.10;1.00;;;;;;5070787;28;20043;-74
2024/01/20 09:01:07;;;;;;;43.65;26.92;;;8.00;1.00;;;;;;5053812;28;20036;-76
2024/01/20 09:03:33;;;;;;;38.92;26.42;;;8.00;1.00;;;;;;5035992;28;20482;-74
2024/01/20 09:05:59;;;;;;;41.22;28.02;;;7.60;1.00;;;;;;5033780;28;20048;-74
2024/01/20 09:08:24;;;;;;;38.60;26.77;;;7.40;1.00;;;;;;5050133;28;20093;-76
2024/01/20 09:10:51;;;;;;;38.40;26.48;;;7.60;1.00;;;;;;5053935;28;20163;-74
2024/01/20 09:13:17;;;;;;;39.80;27.95;;;7.40;8.20;;;;;;5068738;28;20085;-73
2024/01/20 09:15:46;;;;;;;42.38;28.08;;;7.80;19.60;;;;;;5053792;28;20076;-73
2024/01/20 09:18:15;;;;;;;43.33;28.15;;;7.80;37.10;;;;;;5069339;28;20395;-73
2024/01/20 09:20:42;;;;;;;44.22;27.48;;;7.30;55.30;;;;;;5034111;28;20040;-76
2024/01/20 09:23:07;;;;;;;40.50;27.77;;;7.70;73.40;;;;;;5051894;28;20094;-76
2024/01/20 09:25:33;;;;;;;44.15;28.02;;;7.40;82.00;;;;;;5050173;28;20044;-75
2024/01/20 09:28:00;;;;;;;39.67;26.58;;;7.00;90.50;;;;;;5040352;28;20040;-75
2024/01/20 09:30:25;;;;;;;40.63;27.38;;;6.90;95.30;;;;;;5052977;28;20033;-75
2024/01/20 09:32:51;;;;;;;39.67;26.48;;;7.10;77.90;;;;;;5051657;28;20033;-76
2024/01/20 09:35:17;;;;;;;38.80;27.90;;;6.80;80.20;;;;;;5087300;28;20106;-76
2024/01/20 09:37:45;;;;;;;41.17;26.90;;;6.70;89.90;;;;;;5053299;28;20479;-75
2024/01/20 09:40:11;;;;;;;40.45;27.40;;;6.70;93.30;;;;;;5052716;28;20055;-76
2024/01/20 09:42:37;;;;;;;41.15;28.25;;;6.80;86.50;;;;;;5069656;28;20043;-76
2024/01/20 09:45:03;;;;;;;42.13;26.77;;;6.50;90.00;;;;;;5035869;28;20098;-75
2024/01/20 09:47:29;;;;;;;40.45;27.05;;;7.20;91.40;;;;;;5066773;28;20124;-76
2024/01/20 09:49:55;;;;;;;41.78;27.60;;;7.20;94.20;;;;;;5080860;28;20560;-74
2024/01/20 09:52:28;;;;;;;37.53;25.70;;;6.50;70.50;;;;;;5052759;28;20463;-75
2024/01/20 09:55:21;;;;;;;40.22;26.35;;;6.60;66.60;;;;;;5042159;28;20040;-75
2024/01/20 09:57:48;;;;;;;40.90;28.60;;;7.20;42.70;;;;;;5049122;28;20561;-75
2024/01/20 10:00:19;;;;;;;38.70;26.60;;;6.70;30.00;;;;;;5062730;28;20810;-76
2024/01/20 10:02:45;;;;;;;40.72;24.77;;;6.90;32.40;;;;;;5069123;28;20047;-76
2024/01/20 10:05:12;;;;;;;40.85;25.45;;;6.60;30.00;;;;;;5059697;28;20178;-75
2024/01/20 10:07:38;;;;;;;41.38;26.02;;;7.10;9.20;;;;;;5061333;28;20044;-74
2024/01/20 10:10:06;;;;;;;35.78;24.40;;;7.10;3.00;;;;;;5050534;28;20039;-74
2024/01/20 10:12:32;;;;;;;37.00;24.92;;;7.00;2.20;;;;;;5068402;28;20041;-75
2024/01/20 10:14:57;;;;;;;35.50;25.33;;;6.90;1.00;;;;;;5048104;28;20489;-74
2024/01/20 10:17:23;;;;;;;33.88;23.48;;;6.70;1.00;;;;;;5067113;28;20064;-76
2024/01/20 10:19:49;;;;;;;41.65;25.80;;;6.70;1.00;;;;;;5051917;28;20037;-78
2024/01/20 10:22:14;;;;;;;39.65;25.35;;;7.20;1.00;;;;;;5050954;28;20043;-77
2024/01/20 10:24:51;;;;;;;34.53;24.05;;;6.90;1.00;;;;;;5066884;28;20153;-77
2024/01/20 10:27:21;;;;;;;38.85;23.77;;;6.90;1.00;;;;;;5029815;28;20049;-76
2024/01/20 10:29:48;;;;;;;38.35;22.80;;;6.70;1.00;;;;;;5051292;28;20404;-77
2024/01/20 10:32:14;;;;;;;31.45;22.48;;;7.10;1.00;;;;;;5069688;28;20036;-79
2024/01/20 10:34:40;;;;;;;34.47;23.67;;;7.00;1.00;;;;;;5033563;28;20051;-75
2024/01/20 10:37:13;;;;;;;31.67;22.13;;;6.90;1.00;;;;;;5045340;28;20058;-75
2024/01/20 10:39:45;;;;;;;35.88;22.67;;;7.30;1.00;;;;;;5052693;28;20102;-75
2024/01/20 10:42:13;;;;;;;31.92;21.42;;;7.30;1.00;;;;;;5019221;28;20037;-78
2024/01/20 10:44:42;;;;;;;35.17;22.63;;;7.30;1.00;;;;;;5067722;28;20544;-77
2024/01/20 10:47:17;;;;;;;32.88;22.83;;;7.10;1.00;;;;;;5055816;28;20058;-78
2024/01/20 10:49:45;;;;;;;33.90;25.60;;;6.70;1.00;;;;;;5048241;28;20056;-77
2024/01/20 10:52:13;;;;;;;32.40;22.50;;;7.10;1.00;;;;;;5043901;28;20036;-76
2024/01/20 10:54:42;;;;;;;36.50;22.90;;;6.80;1.00;;;;;;5034336;28;20071;-76
2024/01/20 10:57:07;;;;;;;34.80;23.98;;;7.50;1.00;;;;;;5055940;28;20098;-75
2024/01/20 10:59:36;;;;;;;34.17;22.38;;;6.70;1.00;;;;;;5015824;28;20041;-74
2024/01/20 11:02:04;;;;;;;34.42;22.27;;;7.00;1.00;;;;;;5055546;28;20098;-76
2024/01/20 11:04:34;;;;;;;38.47;23.80;;;6.70;1.00;;;;;;5043059;28;20563;-75
2024/01/20 11:07:01;;;;;;;31.40;22.42;;;6.70;1.00;;;;;;5067090;28;20780;-75
2024/01/20 11:09:29;;;;;;;31.70;21.58;;;6.90;1.00;;;;;;5046778;28;20035;-76
2024/01/20 11:12:03;;;;;;;33.67;23.25;;;6.80;1.00;;;;;;5052847;28;20522;-76
2024/01/20 11:14:32;;;;;;;34.45;22.80;;;6.70;99.90;;;;;;5067618;28;20115;-75
2024/01/20 11:17:14;;;;;;;35.58;22.67;;;6.80;1.00;;;;;;5066639;28;20052;-80
2024/01/20 11:19:40;;;;;;;32.50;23.38;;;6.70;99.90;;;;;;5047651;28;20093;-77
2024/01/20 11:22:26;;;;;;;35.95;23.85;;;6.70;99.90;;;;;;5049512;28;20485;-76
2024/01/20 11:24:52;;;;;;;32.08;22.77;;;6.70;99.90;;;;;;5049804;28;20040;-76
2024/01/20 11:27:18;;;;;;;33.13;23.10;;;6.80;99.90;;;;;;5066029;28;20052;-76
2024/01/20 11:29:44;;;;;;;36.15;26.95;;;6.60;99.90;;;;;;5021496;28;20056;-78
2024/01/20 11:32:09;;;;;;;37.67;24.95;;;6.60;99.90;;;;;;5091668;28;20036;-76
2024/01/20 11:34:35;;;;;;;36.40;24.23;;;6.60;99.90;;;;;;5050460;28;20051;-77
2024/01/20 11:37:01;;;;;;;36.67;25.27;;;6.90;99.90;;;;;;5033693;28;20052;-77
2024/01/20 11:39:27;;;;;;;36.53;25.13;;;7.10;99.90;;;;;;5048986;28;20044;-75
2024/01/20 11:42:04;;;;;;;36.45;25.52;;;6.90;99.90;;;;;;5028066;28;20494;-77
2024/01/20 11:44:31;;;;;;;36.78;25.75;;;6.90;99.90;;;;;;5046181;28;20033;-77
2024/01/20 11:47:00;;;;;;;35.97;24.65;;;6.60;99.90;;;;;;5066364;28;20106;-76
2024/01/20 11:49:26;;;;;;;35.53;24.38;;;6.60;99.90;;;;;;5066170;28;20037;-76
2024/01/20 11:51:52;;;;;;;36.00;28.83;;;6.60;99.90;;;;;;5033855;28;20036;-77
2024/01/20 11:54:18;;;;;;;37.38;25.15;;;6.90;99.90;;;;;;5037268;28;20099;-76
2024/01/20 11:56:44;;;;;;;37.00;26.42;;;6.80;99.90;;;;;;5026624;28;20102;-76
2024/01/20 11:59:09;;;;;;;39.25;25.75;;;6.40;99.90;;;;;;5058662;28;20055;-76
2024/01/20 12:01:36;;;;;;;39.10;26.85;;;6.40;99.90;;;;;;5066831;28;20099;-77
2024/01/20 12:04:03;;;;;;;40.13;25.63;;;6.40;99.90;;;;;;5030439;28;20132;-77
2024/01/20 12:06:28;;;;;;;38.13;27.38;;;6.40;99.90;;;;;;5049984;28;20165;-77
2024/01/20 12:08:58;;;;;;;40.78;26.20;;;6.80;99.90;;;;;;5030310;28;20055;-77
2024/01/20 12:11:24;;;;;;;36.03;25.88;;;6.50;99.90;;;;;;5030330;28;20162;-75
2024/01/20 12:13:50;;;;;;;42.03;28.15;;;6.90;99.90;;;;;;5032448;28;20745;-76
2024/01/20 12:16:16;;;;;;;38.70;26.85;;;6.40;1.00;;;;;;5033543;28;20078;-76
2024/01/20 12:18:42;;;;;;;40.78;28.13;;;6.80;1.00;;;;;;5050176;28;20051;-74
2024/01/20 12:21:08;;;;;;;44.88;30.33;;;6.80;1.00;;;;;;5013381;28;20120;-76
2024/01/20 12:23:37;;;;;;;44.50;30.02;;;6.50;1.00;;;;;;5018428;28;20381;-77
2024/01/20 12:26:14;;;;;;;43.35;30.42;;;6.80;1.00;;;;;;5050074;28;20051;-75
2024/01/20 12:28:42;;;;;;;45.75;29.60;;;6.30;1.00;;;;;;5050604;28;20041;-76
2024/01/20 12:31:08;;;;;;;42.72;28.23;;;6.40;1.00;;;;;;5065959;28;20753;-75
2024/01/20 12:33:34;;;;;;;44.10;27.80;;;6.60;1.00;;;;;;5049100;28;20123;-75
2024/01/20 12:36:01;;;;;;;37.67;28.52;;;6.50;1.00;;;;;;5070648;28;20140;-75